sensor_id;sensor_type;location;lat;lon;timestamp;P1;durP1;ratioP1;P2;durP2;ratioP2
57667;SDS011;43499;52.366;12.912;2024-03-23T02:59:55;16.08;;;2.03;;
57667;SDS011;43499;52.366;12.912;2024-03-23T03:00:56;14.13;;;2.08;;
57667;SDS011;43499;52.366;12.912;2024-03-23T03:01:57;11.20;;;2.22;;
57667;SDS011;43499;52.366;12.912;2024-03-23T03:03:00;5.20;;;1.83;;
57667;SDS011;43499;52.366;12.912;2024-03-23T03:04:01;7.93;;;1.33;;
57667;SDS011;43499;52.366;12.912;2024-03-23T03:05:03;11.10;;;1.90;;
57667;SDS011;43499;52.366;12.912;2024-03-23T03:06:05;12.15;;;1.80;;
57667;SDS011;43499;52.366;12.912;2024-03-23T03:07:06;10.77;;;2.10;;
57667;SDS011;43499;52.366;12.912;2024-03-23T03:08:07;12.10;;;2.08;;
57667;SDS011;43499;52.366;12.912;2024-03-23T03:09:08;19.45;;;1.80;;
57667;SDS011;43499;52.366;12.912;2024-03-23T03:10:10;10.75;;;1.60;;
57667;SDS011;43499;52.366;12.912;2024-03-23T03:11:12;5.90;;;1.70;;
57667;SDS011;43499;52.366;12.912;2024-03-23T03:12:13;12.20;;;2.08;;
57667;SDS011;43499;52.366;12.912;2024-03-23T03:13:14;8.43;;;1.75;;
57667;SDS011;43499;52.366;12.912;2024-03-23T03:14:15;9.00;;;1.73;;
57667;SDS011;43499;52.366;12.912;2024-03-23T03:15:16;16.13;;;2.08;;
57667;SDS011;43499;52.366;12.912;2024-03-23T03:16:17;14.05;;;1.90;;
57667;SDS011;43499;52.366;12.912;2024-03-23T03:17:18;7.22;;;1.45;;
57667;SDS011;43499;52.366;12.912;2024-03-23T03:18:19;10.55;;;2.45;;
57667;SDS011;43499;52.366;12.912;2024-03-23T03:19:21;16.10;;;2.13;;
57667;SDS011;43499;52.366;12.912;2024-03-23T03:20:22;16.27;;;1.95;;
57667;SDS011;43499;52.366;12.912;2024-03-23T03:21:24;9.45;;;1.75;;
57667;SDS011;43499;52.366;12.912;2024-03-23T03:22:25;10.30;;;2.13;;
57667;SDS011;43499;52.366;12.912;2024-03-23T03:23:26;8.32;;;1.42;;
57667;SDS011;43499;52.366;12.912;2024-03-23T03:24:27;11.45;;;1.83;;
57667;SDS011;43499;52.366;12.912;2024-03-23T03:25:28;12.15;;;2.47;;
57667;SDS011;43499;52.366;12.912;2024-03-23T03:26:29;10.93;;;1.70;;
57667;SDS011;43499;52.366;12.912;2024-03-23T03:27:30;10.10;;;1.92;;
57667;SDS011;43499;52.366;12.912;2024-03-23T03:28:31;8.15;;;1.52;;
57667;SDS011;43499;52.366;12.912;2024-03-23T03:29:33;13.57;;;1.88;;
57667;SDS011;43499;52.366;12.912;2024-03-23T03:30:36;14.65;;;1.17;;
57667;SDS011;43499;52.366;12.912;2024-03-23T03:31:37;11.48;;;1.10;;
57667;SDS011;43499;52.366;12.912;2024-03-23T03:32:39;8.80;;;1.50;;
57667;SDS011;43499;52.366;12.912;2024-03-23T03:33:40;8.48;;;1.70;;
57667;SDS011;43499;52.366;12.912;2024-03-23T03:34:41;5.65;;;0.93;;
57667;SDS011;43499;52.366;12.912;2024-03-23T03:35:42;6.97;;;1.42;;
57667;SDS011;43499;52.366;12.912;2024-03-23T03:36:44;10.23;;;2.10;;
57667;SDS011;43499;52.366;12.912;2024-03-23T03:37:45;11.93;;;1.20;;
57667;SDS011;43499;52.366;12.912;2024-03-23T03:38:46;8.82;;;1.33;;
57667;SDS011;43499;52.366;12.912;2024-03-23T03:39:47;7.18;;;1.30;;
57667;SDS011;43499;52.366;12.912;2024-03-23T03:40:48;9.00;;;0.70;;
57667;SDS011;43499;52.366;12.912;2024-03-23T03:53:02;6.95;;;0.85;;
57667;SDS011;43499;52.366;12.912;2024-03-23T03:54:03;12.45;;;1.33;;
57667;SDS011;43499;52.366;12.912;2024-03-23T03:55:06;7.10;;;0.80;;
57667;SDS011;43499;52.366;12.912;2024-03-23T03:56:13;9.68;;;0.73;;
57667;SDS011;43499;52.366;12.912;2024-03-23T03:57:14;5.40;;;0.68;;
57667;SDS011;43499;52.366;12.912;2024-03-23T03:58:15;10.38;;;1.33;;
57667;SDS011;43499;52.366;12.912;2024-03-23T03:59:17;5.18;;;0.85;;
57667;SDS011;43499;52.366;12.912;2024-03-23T04:01:19;6.68;;;2.42;;
57667;SDS011;43499;52.366;12.912;2024-03-23T04:02:20;16.80;;;1.05;;
57667;SDS011;43499;52.366;12.912;2024-03-23T04:03:21;17.05;;;0.95;;
57667;SDS011;43499;52.366;12.912;2024-03-23T04:04:22;4.68;;;0.90;;
57667;SDS011;43499;52.366;12.912;2024-03-23T04:05:23;2.63;;;0.82;;
57667;SDS011;43499;52.366;12.912;2024-03-23T04:06:24;5.70;;;0.77;;
57667;SDS011;43499;52.366;12.912;2024-03-23T04:07:25;9.48;;;1.52;;
57667;SDS011;43499;52.366;12.912;2024-03-23T04:08:26;8.30;;;1.05;;
57667;SDS011;43499;52.366;12.912;2024-03-23T04:09:27;5.35;;;0.85;;
57667;SDS011;43499;52.366;12.912;2024-03-23T06:09:33;4.75;;;0.60;;
57667;SDS011;43499;52.366;12.912;2024-03-23T06:10:34;4.15;;;0.40;;
57667;SDS011;43499;52.366;12.912;2024-03-23T06:11:35;2.95;;;0.30;;
57667;SDS011;43499;52.366;12.912;2024-03-23T06:12:36;2.25;;;0.50;;
57667;SDS011;43499;52.366;12.912;2024-03-23T06:13:37;3.17;;;0.32;;
57667;SDS011;43499;52.366;12.912;2024-03-23T06:14:38;6.88;;;1.05;;
57667;SDS011;43499;52.366;12.912;2024-03-23T06:15:39;4.32;;;0.63;;
57667;SDS011;43499;52.366;12.912;2024-03-23T06:16:41;6.03;;;0.80;;
57667;SDS011;43499;52.366;12.912;2024-03-23T08:06:46;7.82;;;0.63;;
57667;SDS011;43499;52.366;12.912;2024-03-23T08:07:50;1.95;;;0.65;;
57667;SDS011;43499;52.366;12.912;2024-03-23T08:08:52;1.35;;;0.20;;
57667;SDS011;43499;52.366;12.912;2024-03-23T08:10:00;2.92;;;0.20;;
57667;SDS011;43499;52.366;12.912;2024-03-23T08:11:02;1.27;;;0.10;;
57667;SDS011;43499;52.366;12.912;2024-03-23T08:12:04;2.00;;;0.40;;
57667;SDS011;43499;52.366;12.912;2024-03-23T08:13:05;4.30;;;0.20;;
57667;SDS011;43499;52.366;12.912;2024-03-23T08:14:07;4.63;;;0.32;;
57667;SDS011;43499;52.366;12.912;2024-03-23T08:15:08;3.97;;;0.30;;
57667;SDS011;43499;52.366;12.912;2024-03-23T08:16:09;2.33;;;0.30;;
57667;SDS011;43499;52.366;12.912;2024-03-23T08:17:10;3.55;;;0.50;;
57667;SDS011;43499;52.366;12.912;2024-03-23T08:18:11;3.65;;;0.32;;
57667;SDS011;43499;52.366;12.912;2024-03-23T08:19:12;3.92;;;0.55;;
57667;SDS011;43499;52.366;12.912;2024-03-23T08:20:13;5.13;;;0.57;;
57667;SDS011;43499;52.366;12.912;2024-03-23T08:21:15;1.92;;;0.43;;
57667;SDS011;43499;52.366;12.912;2024-03-23T08:22:16;1.58;;;0.25;;
57667;SDS011;43499;52.366;12.912;2024-03-23T08:23:17;2.45;;;0.30;;
57667;SDS011;43499;52.366;12.912;2024-03-23T08:24:18;0.47;;;0.10;;
57667;SDS011;43499;52.366;12.912;2024-03-23T08:25:20;2.05;;;0.10;;
57667;SDS011;43499;52.366;12.912;2024-03-23T08:26:21;4.20;;;0.70;;
57667;SDS011;43499;52.366;12.912;2024-03-23T08:27:22;6.00;;;0.30;;
57667;SDS011;43499;52.366;12.912;2024-03-23T08:28:24;2.40;;;0.40;;
57667;SDS011;43499;52.366;12.912;2024-03-23T08:29:25;6.63;;;0.40;;
57667;SDS011;43499;52.366;12.912;2024-03-23T08:30:27;4.75;;;0.52;;
57667;SDS011;43499;52.366;12.912;2024-03-23T08:31:28;1.90;;;0.35;;
57667;SDS011;43499;52.366;12.912;2024-03-23T08:32:29;2.88;;;0.10;;
57667;SDS011;43499;52.366;12.912;2024-03-23T08:33:31;3.33;;;0.63;;
57667;SDS011;43499;52.366;12.912;2024-03-23T08:34:32;4.60;;;1.08;;
57667;SDS011;43499;52.366;12.912;2024-03-23T08:35:33;1.85;;;0.30;;
57667;SDS011;43499;52.366;12.912;2024-03-23T08:36:35;6.40;;;0.68;;
57667;SDS011;43499;52.366;12.912;2024-03-23T08:37:36;5.35;;;0.80;;
57667;SDS011;43499;52.366;12.912;2024-03-23T08:38:37;2.97;;;0.63;;
57667;SDS011;43499;52.366;12.912;2024-03-23T08:39:39;2.47;;;0.55;;
57667;SDS011;43499;52.366;12.912;2024-03-23T13:44:17;4.90;;;1.70;;
57667;SDS011;43499;52.366;12.912;2024-03-23T16:18:36;2.30;;;0.80;;
57667;SDS011;43499;52.366;12.912;2024-03-23T16:19:40;3.85;;;0.70;;
